Etusivu
METAR-TAF:

METAR-TAF

Lentoasemat :

Netaji Subhash Chandra Bosen kansainvälinen lentoasema

Kalkutta, Intia

Leveyspiiri: 22-39N, Pituuspiiri: 088-27E, korkeus merenpinnasta: 4 m

Tämänhetkinen sää

Tämä raportti tehtiin 30 minuuttia sitten, kello 15.00 UTC
tyyntä
Lämpötila 23°C
Kosteus 83%
Ilmanpaine 1014 hPa
Näkyvyys: 3000 m
usvaa

METAR: VECC 131500Z 00000KT 3000 HZ NSC 23/20 Q1014 NOSIG

Aika: 21:00 (15:30 UTC)

Sääennuste

Tämä raportti tehtiin 1 tunti ja 30 minuuttia sitten, kello 14.00 UTC
Ennuste voimassa 13. päivästä klo 15 UTC - 13. päivään klo 24 UTC
Tuuli 5 kn pohjoisen/luoteesta
Näkyvyys: 3000 m
usvaa
Tulossa
13. päivästä klo 21 UTC - 13. päivään klo 23 UTC
Tuuli kn pohjoisesta
Näkyvyys: 1800 m
utua

TAF: VECC 131400Z 1315/1324 33005KT 3000 HZ NSC BECMG 1321/1323 00000KT 1800 BR

Säähavainnot ja -ennusteet yli 4000 lentoasemalta (METAR- ja TAF-raportit).

Käytössä olevat sääasemat on merkitty karttaan keltaisilla ja punaisilla pisteillä.

Aseta hiiri pisteen päälle nähdäksesi sääaseman nimen.

Klikkaa sitten nähdäksesi säähavainnot ja -ennusteet.

Kartan vaihtaminen: klikkaa mustalla rastilla varustettuja vihreitä pisteitä, niin voit zoomata sisään; viivalla varustettua vihreää pistettä, niin voit zoomata ulos tai vihreitä nuolia, niin pääset viereisille kartoille.


METAR-TAF: